createdAt,value
2017-10-28T00:00:59.654Z,22.05
2017-10-28T00:03:27.918Z,18.58
2017-10-28T00:05:55.451Z,19.62
2017-10-28T00:08:22.898Z,21.87
2017-10-28T00:10:50.350Z,28.77
2017-10-28T00:13:17.816Z,23.70
2017-10-28T00:15:45.262Z,25.35
2017-10-28T00:18:12.720Z,23.35
2017-10-28T00:20:40.185Z,22.23
2017-10-28T00:23:07.653Z,19.77
2017-10-28T00:25:35.113Z,18.55
2017-10-28T00:28:02.568Z,17.42
2017-10-28T00:30:35.698Z,18.52
2017-10-28T00:33:09.713Z,21.67
2017-10-28T00:35:43.801Z,21.50
2017-10-28T00:38:11.251Z,17.65
2017-10-28T00:40:38.693Z,20.27
2017-10-28T00:43:10.305Z,21.02
2017-10-28T00:45:37.759Z,21.15
2017-10-28T00:48:05.976Z,16.73
2017-10-28T00:50:33.440Z,23.15
2017-10-28T00:53:00.888Z,20.00
2017-10-28T00:55:28.341Z,26.10
2017-10-28T00:57:55.800Z,23.55
2017-10-28T01:00:23.245Z,29.15
2017-10-28T01:02:50.701Z,24.08
2017-10-28T01:05:18.158Z,26.87
2017-10-28T01:07:45.610Z,23.73
2017-10-28T01:10:13.061Z,20.15
2017-10-28T01:15:36.673Z,24.87
2017-10-28T01:18:04.125Z,22.87
2017-10-28T01:20:31.589Z,18.60
2017-10-28T01:22:59.033Z,22.67
2017-10-28T01:25:26.493Z,22.10
2017-10-28T01:27:53.949Z,22.87
2017-10-28T01:30:21.410Z,23.65
2017-10-28T01:32:48.848Z,23.52
2017-10-28T01:35:16.311Z,24.23
2017-10-28T01:37:43.762Z,22.77
2017-10-28T01:40:11.214Z,26.10
2017-10-28T01:42:38.665Z,23.73
2017-10-28T01:45:06.118Z,27.48
2017-10-28T01:47:33.601Z,24.30
2017-10-28T01:50:01.079Z,31.85
2017-10-28T01:52:28.525Z,24.58
2017-10-28T01:54:55.985Z,24.10
2017-10-28T01:57:23.458Z,22.20
2017-10-28T01:59:50.964Z,25.08
2017-10-28T02:02:18.424Z,21.27
2017-10-28T02:04:45.884Z,23.10
2017-10-28T02:07:14.121Z,22.50
2017-10-28T02:09:41.578Z,26.95
2017-10-28T02:12:09.041Z,19.73
2017-10-28T02:14:36.494Z,25.75
2017-10-28T02:17:03.954Z,22.67
2017-10-28T02:19:31.413Z,26.48
2017-10-28T02:21:58.872Z,20.35
2017-10-28T02:27:20.138Z,21.55
2017-10-28T02:29:47.589Z,23.70
2017-10-28T02:32:15.069Z,29.63
2017-10-28T02:34:42.509Z,26.02
2017-10-28T02:37:09.983Z,23.12
2017-10-28T02:39:37.454Z,26.40
2017-10-28T02:42:04.922Z,22.13
2017-10-28T02:44:32.369Z,24.98
2017-10-28T02:46:59.852Z,25.00
2017-10-28T02:49:28.065Z,22.58
2017-10-28T02:51:55.521Z,20.65
2017-10-28T02:54:22.973Z,22.90
2017-10-28T02:56:50.429Z,22.10
2017-10-28T02:59:17.878Z,24.35
2017-10-28T03:01:45.339Z,23.02
2017-10-28T03:04:12.809Z,24.48
2017-10-28T03:06:40.305Z,21.20
2017-10-28T03:09:07.853Z,21.75
2017-10-28T03:11:35.326Z,23.42
2017-10-28T03:14:02.831Z,21.77
2017-10-28T03:16:30.287Z,24.15
2017-10-28T03:18:57.761Z,27.98
2017-10-28T03:21:25.202Z,26.67
2017-10-28T03:23:52.667Z,23.08
2017-10-28T03:26:20.140Z,25.58
2017-10-28T03:28:47.597Z,32.92
2017-10-28T03:31:15.055Z,26.48
2017-10-28T03:33:42.519Z,30.80
2017-10-28T03:36:09.982Z,26.42
2017-10-28T03:38:37.443Z,27.23
2017-10-28T03:41:04.895Z,27.20
2017-10-28T03:43:32.381Z,22.67
2017-10-28T03:45:59.832Z,26.33
2017-10-28T03:48:27.289Z,22.48
2017-10-28T03:50:54.768Z,25.40
2017-10-28T03:53:22.982Z,24.63
2017-10-28T03:55:50.435Z,28.90
2017-10-28T03:58:17.893Z,25.37
2017-10-28T04:00:45.434Z,33.05
2017-10-28T04:03:12.879Z,30.70
2017-10-28T04:05:41.099Z,29.80
2017-10-28T04:08:08.558Z,31.27
2017-10-28T04:10:36.020Z,29.60
2017-10-28T04:13:03.482Z,20.62
2017-10-28T04:15:30.950Z,29.75
2017-10-28T04:17:58.401Z,28.10
2017-10-28T04:20:25.866Z,25.42
2017-10-28T04:22:53.322Z,25.05
2017-10-28T04:25:20.813Z,35.08
2017-10-28T04:27:48.273Z,24.75
2017-10-28T04:30:16.498Z,23.45
2017-10-28T04:32:43.958Z,22.00
2017-10-28T04:35:11.413Z,25.15
2017-10-28T04:37:38.865Z,28.58
2017-10-28T04:40:06.333Z,25.95
2017-10-28T04:42:33.810Z,23.30
2017-10-28T04:45:01.253Z,24.37
2017-10-28T04:47:28.728Z,29.45
2017-10-28T04:49:56.953Z,19.30
2017-10-28T04:52:24.405Z,28.55
2017-10-28T04:54:51.869Z,26.67
2017-10-28T04:57:19.318Z,25.75
2017-10-28T04:59:46.794Z,21.67
2017-10-28T05:02:14.255Z,27.48
2017-10-28T05:04:41.825Z,26.30
2017-10-28T05:07:09.277Z,25.60
2017-10-28T05:09:36.765Z,25.27
2017-10-28T05:12:04.217Z,22.50
2017-10-28T05:14:31.701Z,26.70
2017-10-28T05:16:59.170Z,26.10
2017-10-28T05:19:26.623Z,27.20
2017-10-28T05:21:54.080Z,26.37
2017-10-28T05:24:21.533Z,29.87
2017-10-28T05:26:48.992Z,24.25
2017-10-28T05:29:16.441Z,26.80
2017-10-28T05:31:44.670Z,31.95
2017-10-28T05:34:12.128Z,29.17
2017-10-28T05:36:39.593Z,25.75
2017-10-28T05:39:07.046Z,25.27
2017-10-28T05:41:34.505Z,35.95
2017-10-28T05:44:01.974Z,27.35
2017-10-28T05:46:29.456Z,28.27
2017-10-28T05:48:57.673Z,30.77
2017-10-28T05:51:25.158Z,30.35
2017-10-28T05:53:52.613Z,27.77
2017-10-28T05:56:20.070Z,26.95
2017-10-28T05:58:47.527Z,23.30
2017-10-28T06:01:14.986Z,30.75
2017-10-28T06:03:42.446Z,31.70
2017-10-28T06:06:09.915Z,34.17
2017-10-28T06:08:37.363Z,41.37
2017-10-28T06:11:04.857Z,27.35
2017-10-28T06:13:33.158Z,25.27
2017-10-28T06:16:00.607Z,27.75
2017-10-28T06:18:28.061Z,28.12
2017-10-28T06:20:55.527Z,35.38
2017-10-28T06:23:23.046Z,24.15
2017-10-28T06:25:50.502Z,28.90
2017-10-28T06:28:18.758Z,29.83
2017-10-28T06:30:46.231Z,28.35
2017-10-28T06:33:14.495Z,26.30
2017-10-28T06:35:41.957Z,21.08
2017-10-28T06:38:09.417Z,21.62
2017-10-28T06:40:36.865Z,27.48
2017-10-28T06:43:04.319Z,23.02
2017-10-28T06:45:31.776Z,26.50
2017-10-28T06:47:59.252Z,27.10
2017-10-28T06:50:27.485Z,28.30
2017-10-28T06:52:54.939Z,26.23
2017-10-28T06:55:22.390Z,21.95
2017-10-28T06:57:49.847Z,17.40
2017-10-28T07:00:17.290Z,20.98
2017-10-28T07:02:44.750Z,19.20
2017-10-28T07:05:12.211Z,21.37
2017-10-28T07:07:39.694Z,21.55
2017-10-28T07:10:07.142Z,21.33
2017-10-28T07:12:34.606Z,19.02
2017-10-28T07:15:02.065Z,24.58
2017-10-28T07:17:29.526Z,24.05
2017-10-28T07:19:57.044Z,19.98
2017-10-28T07:22:25.252Z,25.98
2017-10-28T07:24:52.722Z,19.17
2017-10-28T07:27:20.170Z,19.80
2017-10-28T07:29:47.677Z,21.05
2017-10-28T07:32:15.138Z,15.52
2017-10-28T07:34:42.589Z,28.80
2017-10-28T07:37:10.045Z,21.58
2017-10-28T07:39:37.502Z,20.35
2017-10-28T07:42:05.762Z,19.48
2017-10-28T07:44:33.219Z,17.12
2017-10-28T07:47:00.671Z,18.95
2017-10-28T07:49:28.128Z,16.12
2017-10-28T07:51:55.639Z,22.45
2017-10-28T07:54:23.110Z,21.42
2017-10-28T07:56:50.630Z,19.75
2017-10-28T07:59:18.111Z,19.15
2017-10-28T08:01:45.568Z,17.98
2017-10-28T08:04:18.782Z,18.05
2017-10-28T08:06:46.238Z,20.17
2017-10-28T08:09:13.693Z,25.23
2017-10-28T08:14:38.368Z,18.48
2017-10-28T08:17:05.820Z,23.23
2017-10-28T08:19:33.272Z,19.00
2017-10-28T08:22:00.731Z,17.73
2017-10-28T08:24:28.226Z,19.73
2017-10-28T08:26:55.680Z,16.30
2017-10-28T08:29:23.894Z,17.15
2017-10-28T08:31:51.370Z,14.50
2017-10-28T08:34:18.818Z,15.23
2017-10-28T08:36:46.321Z,14.48
2017-10-28T08:39:14.545Z,17.50
2017-10-28T08:41:42.002Z,19.60
2017-10-28T08:44:09.457Z,18.75
2017-10-28T08:46:36.915Z,17.98
2017-10-28T08:49:04.387Z,18.25
2017-10-28T08:51:31.850Z,17.00
2017-10-28T08:53:59.311Z,19.50
2017-10-28T08:56:26.811Z,15.18
2017-10-28T08:58:54.271Z,15.93
2017-10-28T09:01:21.751Z,13.13
2017-10-28T09:03:49.214Z,16.62
2017-10-28T09:06:16.692Z,13.90
2017-10-28T09:08:44.138Z,15.57
2017-10-28T09:11:11.595Z,23.95
2017-10-28T09:13:39.073Z,17.75
2017-10-28T09:16:06.521Z,14.82
2017-10-28T09:18:33.981Z,15.77
2017-10-28T09:21:01.443Z,16.95
2017-10-28T09:23:28.891Z,16.35
2017-10-28T09:25:56.384Z,15.75
2017-10-28T09:28:24.600Z,15.77
2017-10-28T09:30:52.074Z,15.48
2017-10-28T09:33:19.545Z,15.93
2017-10-28T09:35:47.003Z,20.30
2017-10-28T09:38:14.479Z,18.55
2017-10-28T09:40:41.946Z,16.70
2017-10-28T09:43:10.209Z,19.90
2017-10-28T09:48:34.562Z,15.30
2017-10-28T09:51:02.025Z,14.77
2017-10-28T09:53:29.483Z,13.65
2017-10-28T09:55:56.953Z,14.43
2017-10-28T09:58:24.451Z,13.45
2017-10-28T10:00:51.909Z,17.50
2017-10-28T10:03:19.365Z,13.75
2017-10-28T10:08:45.251Z,14.65
2017-10-28T10:11:12.706Z,16.75
2017-10-28T10:13:40.166Z,13.27
2017-10-28T10:16:07.601Z,13.65
2017-10-28T10:18:35.079Z,11.82
2017-10-28T10:21:02.561Z,11.20
2017-10-28T10:23:30.017Z,10.70
2017-10-28T10:25:57.461Z,13.00
2017-10-28T10:28:24.908Z,12.37
2017-10-28T10:30:52.358Z,13.73
2017-10-28T10:33:19.804Z,13.40
2017-10-28T10:35:47.245Z,14.07
2017-10-28T10:38:14.688Z,17.42
2017-10-28T10:40:42.894Z,9.45
2017-10-28T10:43:10.337Z,15.13
2017-10-28T10:45:37.776Z,13.27
2017-10-28T10:48:05.993Z,15.98
2017-10-28T10:50:33.433Z,13.35
2017-10-28T10:53:00.868Z,12.73
2017-10-28T10:55:29.078Z,9.02
2017-10-28T10:57:56.508Z,10.43
2017-10-28T11:00:23.949Z,9.80
2017-10-28T11:02:52.171Z,10.20
2017-10-28T11:05:19.612Z,11.65
2017-10-28T11:07:47.057Z,11.07
2017-10-28T11:10:15.285Z,11.80
2017-10-28T11:12:42.762Z,10.52
2017-10-28T11:15:10.199Z,9.88
2017-10-28T11:17:37.645Z,12.63
2017-10-28T11:20:05.089Z,9.43
2017-10-28T11:22:33.304Z,8.55
2017-10-28T11:25:00.735Z,11.65
2017-10-28T11:27:28.172Z,10.63
2017-10-28T11:29:56.384Z,13.02
2017-10-28T11:32:23.833Z,15.75
2017-10-28T11:34:51.273Z,9.73
2017-10-28T11:37:18.714Z,9.82
2017-10-28T11:39:46.148Z,8.88
2017-10-28T11:42:13.589Z,7.07
2017-10-28T11:44:41.069Z,11.90
2017-10-28T11:47:08.513Z,10.90
2017-10-28T11:49:35.948Z,18.25
2017-10-28T11:52:03.407Z,22.40
2017-10-28T11:54:30.853Z,14.10
2017-10-28T11:56:58.300Z,11.35
2017-10-28T11:59:26.508Z,8.27
2017-10-28T12:01:53.953Z,8.38
2017-10-28T12:04:21.403Z,13.55
2017-10-28T12:06:48.873Z,12.85
2017-10-28T12:09:16.309Z,9.88
2017-10-28T12:11:44.538Z,13.10
2017-10-28T12:14:11.979Z,14.52
2017-10-28T12:16:39.423Z,9.65
2017-10-28T12:19:06.877Z,9.25
2017-10-28T12:21:34.312Z,10.57
2017-10-28T12:24:02.520Z,9.73
2017-10-28T12:26:29.964Z,10.23
2017-10-28T12:28:57.405Z,9.27
2017-10-28T12:31:25.613Z,11.85
2017-10-28T12:33:53.053Z,9.27
2017-10-28T12:36:20.487Z,12.18
2017-10-28T12:38:47.929Z,8.13
2017-10-28T12:41:15.367Z,12.68
2017-10-28T12:43:42.844Z,10.55
2017-10-28T12:46:10.287Z,10.15
2017-10-28T12:48:37.724Z,9.65
2017-10-28T12:51:05.190Z,9.68
2017-10-28T12:53:32.635Z,8.65
2017-10-28T12:56:00.834Z,11.40
2017-10-28T12:58:28.284Z,11.38
2017-10-28T13:00:55.728Z,18.05
2017-10-28T13:03:23.941Z,14.55
2017-10-28T13:05:51.437Z,11.40
2017-10-28T13:08:18.891Z,15.18
2017-10-28T13:10:46.329Z,11.20
2017-10-28T13:13:13.800Z,11.77
2017-10-28T13:15:41.236Z,8.90
2017-10-28T13:18:08.672Z,7.37
2017-10-28T13:23:32.366Z,11.48
2017-10-28T13:25:59.825Z,9.10
2017-10-28T13:28:27.282Z,12.57
2017-10-28T13:30:54.780Z,9.65
2017-10-28T13:33:22.238Z,10.32
2017-10-28T13:35:49.690Z,8.63
2017-10-28T13:38:17.143Z,7.57
2017-10-28T13:40:44.686Z,13.13
2017-10-28T13:43:12.161Z,9.85
2017-10-28T13:48:30.384Z,6.30
2017-10-28T13:50:57.843Z,7.20
2017-10-28T13:53:25.297Z,14.70
2017-10-28T13:58:49.065Z,10.48
2017-10-28T14:01:16.518Z,6.95
2017-10-28T14:03:43.974Z,14.23
2017-10-28T14:06:11.461Z,9.93
2017-10-28T14:08:38.914Z,10.38
2017-10-28T14:11:06.375Z,7.75
2017-10-28T14:16:29.887Z,6.80
2017-10-28T14:18:57.336Z,9.32
2017-10-28T14:24:28.706Z,11.57
2017-10-28T14:26:56.170Z,10.80
2017-10-28T14:29:23.617Z,9.25
2017-10-28T14:31:51.091Z,7.43
2017-10-28T14:34:18.539Z,8.20
2017-10-28T14:36:45.993Z,8.60
2017-10-28T14:39:13.438Z,7.18
2017-10-28T14:41:40.902Z,14.50
2017-10-28T14:44:08.351Z,8.25
2017-10-28T14:49:33.514Z,10.82
2017-10-28T14:52:00.969Z,12.48
2017-10-28T14:54:28.417Z,7.80
2017-10-28T14:56:55.871Z,12.95
2017-10-28T14:59:23.309Z,8.32
2017-10-28T15:04:53.974Z,10.73
2017-10-28T15:07:21.442Z,6.70
2017-10-28T15:09:48.893Z,13.45
2017-10-28T15:12:16.350Z,8.60
2017-10-28T15:14:43.777Z,7.32
2017-10-28T15:17:11.224Z,8.68
2017-10-28T15:19:38.659Z,8.88
2017-10-28T15:22:19.320Z,9.63
2017-10-28T15:24:46.760Z,9.20
2017-10-28T15:27:14.200Z,13.50
2017-10-28T15:29:42.414Z,10.73
2017-10-28T15:32:09.861Z,11.30
2017-10-28T15:34:37.292Z,9.27
2017-10-28T15:37:05.527Z,12.20
2017-10-28T15:39:32.964Z,11.43
2017-10-28T15:42:00.405Z,8.38
2017-10-28T15:44:27.862Z,8.85
2017-10-28T15:46:55.349Z,8.23
2017-10-28T15:49:22.789Z,11.63
2017-10-28T15:51:50.246Z,12.57
2017-10-28T15:54:17.698Z,10.80
2017-10-28T15:56:45.214Z,8.77
2017-10-28T15:59:12.682Z,11.38
2017-10-28T16:01:40.130Z,13.73
2017-10-28T16:04:07.591Z,11.38
2017-10-28T16:06:35.040Z,9.70
2017-10-28T16:09:04.408Z,9.30
2017-10-28T16:11:32.728Z,9.18
2017-10-28T16:14:00.184Z,11.63
2017-10-28T16:16:27.637Z,14.57
2017-10-28T16:18:55.094Z,9.70
2017-10-28T16:21:22.545Z,12.37
2017-10-28T16:23:50.003Z,10.40
2017-10-28T16:26:17.450Z,10.20
2017-10-28T16:28:44.916Z,12.00
2017-10-28T16:31:12.366Z,10.27
2017-10-28T16:33:39.821Z,11.00
2017-10-28T16:36:07.333Z,11.70
2017-10-28T16:38:34.802Z,8.52
2017-10-28T16:41:02.254Z,13.98
2017-10-28T16:43:29.708Z,14.63
2017-10-28T16:45:57.155Z,10.95
2017-10-28T16:48:24.658Z,11.77
2017-10-28T16:50:52.869Z,9.10
2017-10-28T16:53:20.323Z,12.88
2017-10-28T16:55:47.773Z,9.93
2017-10-28T16:58:15.221Z,9.80
2017-10-28T17:00:42.678Z,9.50
2017-10-28T17:03:10.121Z,9.77
2017-10-28T17:05:37.578Z,10.45
2017-10-28T17:08:05.026Z,12.02
2017-10-28T17:10:36.254Z,11.40
2017-10-28T17:13:03.702Z,10.02
2017-10-28T17:15:31.150Z,17.48
2017-10-28T17:17:58.601Z,12.15
2017-10-28T17:20:26.053Z,10.52
2017-10-28T17:22:53.515Z,9.98
2017-10-28T17:25:20.961Z,9.32
2017-10-28T17:27:48.430Z,11.20
2017-10-28T17:30:15.890Z,7.15
2017-10-28T17:32:43.340Z,10.20
2017-10-28T17:35:10.790Z,11.40
2017-10-28T17:37:38.335Z,12.85
2017-10-28T17:40:05.807Z,10.27
2017-10-28T17:42:33.254Z,10.27
2017-10-28T17:45:00.710Z,9.00
2017-10-28T17:47:28.169Z,8.20
2017-10-28T17:49:55.649Z,9.55
2017-10-28T17:52:23.139Z,9.63
2017-10-28T17:54:50.581Z,11.10
2017-10-28T17:57:18.035Z,10.25
2017-10-28T17:59:45.501Z,7.95
2017-10-28T18:02:13.077Z,11.00
2017-10-28T18:04:40.502Z,8.45
2017-10-28T18:07:07.977Z,8.25
2017-10-28T18:09:35.414Z,6.85
2017-10-28T18:12:02.874Z,12.37
2017-10-28T18:14:30.323Z,6.97
2017-10-28T18:16:57.780Z,5.57
2017-10-28T18:19:25.237Z,9.93
2017-10-28T18:21:52.693Z,4.87
2017-10-28T18:24:20.159Z,9.93
2017-10-28T18:26:47.614Z,8.20
2017-10-28T18:29:15.058Z,8.38
2017-10-28T18:31:42.534Z,13.68
2017-10-28T18:34:09.977Z,7.22
2017-10-28T18:36:37.446Z,6.30
2017-10-28T18:39:04.883Z,8.40
2017-10-28T18:41:32.333Z,7.50
2017-10-28T18:43:59.777Z,7.22
2017-10-28T18:46:27.236Z,6.25
2017-10-28T18:48:54.689Z,7.18
2017-10-28T18:51:22.155Z,9.50
2017-10-28T18:53:49.611Z,8.10
2017-10-28T18:56:17.058Z,7.72
2017-10-28T18:58:44.505Z,8.93
2017-10-28T19:01:12.715Z,9.52
2017-10-28T19:03:40.171Z,7.15
2017-10-28T19:06:07.638Z,6.45
2017-10-28T19:11:31.582Z,6.35
2017-10-28T19:13:59.033Z,6.60
2017-10-28T19:16:26.482Z,5.97
2017-10-28T19:18:53.954Z,7.35
2017-10-28T19:21:21.397Z,4.90
2017-10-28T19:23:48.854Z,8.88
2017-10-28T19:26:16.318Z,11.38
2017-10-28T19:28:43.770Z,9.63
2017-10-28T19:31:11.222Z,5.95
2017-10-28T19:33:38.666Z,6.25
2017-10-28T19:36:06.121Z,8.57
2017-10-28T19:38:33.578Z,4.80
2017-10-28T19:41:01.121Z,6.60
2017-10-28T19:43:28.566Z,9.27
2017-10-28T19:45:56.794Z,10.05
2017-10-28T19:48:24.297Z,4.55
2017-10-28T19:50:51.730Z,4.62
2017-10-28T19:53:19.181Z,8.45
2017-10-28T19:55:46.626Z,5.00
2017-10-28T19:58:14.072Z,4.20
2017-10-28T20:00:41.512Z,4.75
2017-10-28T20:03:08.971Z,7.70
2017-10-28T20:05:36.405Z,5.15
2017-10-28T20:08:03.839Z,4.45
2017-10-28T20:10:31.282Z,5.12
2017-10-28T20:12:58.709Z,6.75
2017-10-28T20:15:26.161Z,9.50
2017-10-28T20:17:53.588Z,5.45
2017-10-28T20:20:21.033Z,5.57
2017-10-28T20:22:49.251Z,4.50
2017-10-28T20:25:16.706Z,5.22
2017-10-28T20:27:44.201Z,4.82
2017-10-28T20:30:11.652Z,6.78
2017-10-28T20:32:39.097Z,5.87
2017-10-28T20:35:06.573Z,8.43
2017-10-28T20:37:34.012Z,4.50
2017-10-28T20:40:01.460Z,7.32
2017-10-28T20:42:28.923Z,6.30
2017-10-28T20:44:56.356Z,8.07
2017-10-28T20:47:23.787Z,7.90
2017-10-28T20:49:51.228Z,7.53
2017-10-28T20:52:19.430Z,10.23
2017-10-28T20:54:46.872Z,8.18
2017-10-28T20:57:15.092Z,6.07
2017-10-28T20:59:42.551Z,12.77
2017-10-28T21:02:09.975Z,8.98
2017-10-28T21:04:37.429Z,7.05
2017-10-28T21:07:06.449Z,5.45
2017-10-28T21:09:33.880Z,13.27
2017-10-28T21:12:01.315Z,7.62
2017-10-28T21:14:28.756Z,7.00
2017-10-28T21:16:56.198Z,7.25
2017-10-28T21:19:23.637Z,4.03
2017-10-28T21:21:51.841Z,7.20
2017-10-28T21:24:19.278Z,6.47
2017-10-28T21:26:46.712Z,5.15
2017-10-28T21:29:14.945Z,5.18
2017-10-28T21:31:42.386Z,9.13
2017-10-28T21:34:09.822Z,5.10
2017-10-28T21:36:37.264Z,5.85
2017-10-28T21:39:08.115Z,8.65
2017-10-28T21:41:35.559Z,7.10
2017-10-28T21:44:02.984Z,8.32
2017-10-28T21:46:30.444Z,6.55
2017-10-28T21:48:57.897Z,3.80
2017-10-28T21:51:25.340Z,9.45
2017-10-28T21:53:52.762Z,4.40
2017-10-28T21:56:20.209Z,4.80
2017-10-28T21:58:48.410Z,3.90
2017-10-28T22:01:15.879Z,7.28
2017-10-28T22:03:43.316Z,5.95
2017-10-28T22:06:11.542Z,6.15
2017-10-28T22:08:42.481Z,6.25
2017-10-28T22:11:09.920Z,7.32
2017-10-28T22:13:37.365Z,4.97
2017-10-28T22:16:05.564Z,3.17
2017-10-28T22:18:33.005Z,3.92
2017-10-28T22:21:00.440Z,6.10
2017-10-28T22:23:28.642Z,5.28
2017-10-28T22:25:56.079Z,6.97
2017-10-28T22:28:23.514Z,7.18
2017-10-28T22:30:50.952Z,7.22
2017-10-28T22:33:18.413Z,5.45
2017-10-28T22:35:45.856Z,5.30
2017-10-28T22:38:13.290Z,4.45
2017-10-28T22:40:41.487Z,6.50
2017-10-28T22:43:08.930Z,7.20
2017-10-28T22:45:37.123Z,7.28
2017-10-28T22:48:04.577Z,5.70
2017-10-28T22:50:37.647Z,7.40
2017-10-28T22:53:08.586Z,7.80
2017-10-28T22:55:39.242Z,5.32
2017-10-28T22:58:07.449Z,9.38
2017-10-28T23:00:34.890Z,8.70
2017-10-28T23:03:03.101Z,7.78
2017-10-28T23:05:30.532Z,7.93
2017-10-28T23:07:57.974Z,7.32
2017-10-28T23:10:26.982Z,6.70
2017-10-28T23:12:55.196Z,7.97
2017-10-28T23:15:22.662Z,6.75
2017-10-28T23:17:50.090Z,6.65
2017-10-28T23:20:17.529Z,7.75
2017-10-28T23:22:45.742Z,6.55
2017-10-28T23:25:13.165Z,8.02
2017-10-28T23:27:41.359Z,11.60
2017-10-28T23:30:08.800Z,7.00
2017-10-28T23:32:36.231Z,7.40
2017-10-28T23:35:04.440Z,5.32
2017-10-28T23:37:31.877Z,9.63
2017-10-28T23:42:56.590Z,5.97
2017-10-28T23:45:24.068Z,7.97
2017-10-28T23:47:52.274Z,7.70
2017-10-28T23:50:19.729Z,7.50
2017-10-28T23:55:50.454Z,6.97
2017-10-28T23:58:17.905Z,7.82
